sensor_id;sensor_type;location;lat;lon;timestamp;pressure;altitude;pressure_sealevel;temperature;humidity
32642;BME280;19323;56.072;9.698;2022-09-27T00:02:12;98370.78;;;27.84;37.38
32642;BME280;19323;56.072;9.698;2022-09-27T00:04:38;98370.78;;;27.84;37.47
32642;BME280;19323;56.072;9.698;2022-09-27T00:07:05;98366.25;;;27.85;37.28
32642;BME280;19323;56.072;9.698;2022-09-27T00:09:32;98365.41;;;27.84;37.25
32642;BME280;19323;56.072;9.698;2022-09-27T00:11:59;98363.56;;;27.85;37.53
32642;BME280;19323;56.072;9.698;2022-09-27T00:14:26;98360.03;;;27.84;37.25
32642;BME280;19323;56.072;9.698;2022-09-27T00:16:52;98362.72;;;27.84;37.49
32642;BME280;19323;56.072;9.698;2022-09-27T00:19:20;98356.53;;;27.84;37.46
32642;BME280;19323;56.072;9.698;2022-09-27T00:21:48;98359.00;;;27.85;37.29
32642;BME280;19323;56.072;9.698;2022-09-27T00:24:20;98360.44;;;27.88;36.95
32642;BME280;19323;56.072;9.698;2022-09-27T00:26:48;98362.53;;;27.86;37.45
32642;BME280;19323;56.072;9.698;2022-09-27T00:29:16;98354.47;;;27.86;37.50
32642;BME280;19323;56.072;9.698;2022-09-27T00:31:43;98362.53;;;27.86;37.55
32642;BME280;19323;56.072;9.698;2022-09-27T00:34:17;98355.16;;;27.93;37.05
32642;BME280;19323;56.072;9.698;2022-09-27T00:36:44;98364.59;;;27.84;37.17
32642;BME280;19323;56.072;9.698;2022-09-27T00:39:11;98355.69;;;27.83;37.46
32642;BME280;19323;56.072;9.698;2022-09-27T00:41:37;98360.88;;;27.85;37.09
32642;BME280;19323;56.072;9.698;2022-09-27T00:47:54;98365.44;;;27.96;37.18
32642;BME280;19323;56.072;9.698;2022-09-27T00:50:08;98368.63;;;27.93;37.05
32642;BME280;19323;56.072;9.698;2022-09-27T00:52:47;98365.34;;;27.91;37.40
32642;BME280;19323;56.072;9.698;2022-09-27T00:55:21;98371.19;;;27.88;37.78
32642;BME280;19323;56.072;9.698;2022-09-27T00:57:49;98370.59;;;27.86;37.48
32642;BME280;19323;56.072;9.698;2022-09-27T01:00:16;98364.81;;;27.82;37.54
32642;BME280;19323;56.072;9.698;2022-09-27T01:02:46;98370.13;;;27.89;37.27
32642;BME280;19323;56.072;9.698;2022-09-27T01:05:16;98368.72;;;27.86;37.30
32642;BME280;19323;56.072;9.698;2022-09-27T01:07:45;98364.38;;;27.85;37.18
32642;BME280;19323;56.072;9.698;2022-09-27T01:10:13;98367.91;;;27.86;37.06
32642;BME280;19323;56.072;9.698;2022-09-27T01:32:17;98365.69;;;27.94;37.23
32642;BME280;19323;56.072;9.698;2022-09-27T01:37:35;98362.63;;;27.91;37.22
32642;BME280;19323;56.072;9.698;2022-09-27T01:40:18;98359.13;;;27.90;37.37
32642;BME280;19323;56.072;9.698;2022-09-27T01:42:58;98359.94;;;27.91;37.13
32642;BME280;19323;56.072;9.698;2022-09-27T01:45:37;98359.72;;;27.92;36.90
32642;BME280;19323;56.072;9.698;2022-09-27T01:48:10;98366.84;;;27.87;37.07
32642;BME280;19323;56.072;9.698;2022-09-27T01:50:42;98365.81;;;27.88;37.17
32642;BME280;19323;56.072;9.698;2022-09-27T01:53:29;98363.22;;;27.93;37.17
32642;BME280;19323;56.072;9.698;2022-09-27T01:56:01;98354.66;;;27.84;37.02
32642;BME280;19323;56.072;9.698;2022-09-27T02:01:08;98357.22;;;27.79;37.01
32642;BME280;19323;56.072;9.698;2022-09-27T02:03:39;98358.78;;;27.87;37.35
32642;BME280;19323;56.072;9.698;2022-09-27T02:06:15;98365.34;;;27.91;37.06
32642;BME280;19323;56.072;9.698;2022-09-27T02:08:50;98362.06;;;27.89;36.83
32642;BME280;19323;56.072;9.698;2022-09-27T02:11:18;98361.75;;;27.79;37.29
32642;BME280;19323;56.072;9.698;2022-09-27T02:16:49;98360.47;;;27.81;37.03
32642;BME280;19323;56.072;9.698;2022-09-27T02:19:29;98357.97;;;27.86;37.32
32642;BME280;19323;56.072;9.698;2022-09-27T02:22:16;98363.22;;;27.93;37.08
32642;BME280;19323;56.072;9.698;2022-09-27T02:25:11;98358.19;;;27.85;37.00
32642;BME280;19323;56.072;9.698;2022-09-27T02:27:56;98362.63;;;27.91;37.04
32642;BME280;19323;56.072;9.698;2022-09-27T02:30:24;98359.06;;;27.79;37.21
32642;BME280;19323;56.072;9.698;2022-09-27T02:32:51;98362.34;;;27.81;37.00
32642;BME280;19323;56.072;9.698;2022-09-27T02:35:21;98369.97;;;27.84;36.83
32642;BME280;19323;56.072;9.698;2022-09-27T02:37:50;98355.78;;;27.77;36.95
32642;BME280;19323;56.072;9.698;2022-09-27T02:40:17;98358.03;;;27.80;37.20
32642;BME280;19323;56.072;9.698;2022-09-27T02:42:44;98358.25;;;27.78;36.71
32642;BME280;19323;56.072;9.698;2022-09-27T02:45:12;98365.03;;;27.81;37.02
32642;BME280;19323;56.072;9.698;2022-09-27T02:50:33;98363.13;;;27.88;36.85
32642;BME280;19323;56.072;9.698;2022-09-27T02:59:11;98367.44;;;27.89;36.59
32642;BME280;19323;56.072;9.698;2022-09-27T03:04:31;98357.16;;;27.86;36.67
32642;BME280;19323;56.072;9.698;2022-09-27T03:07:00;98350.66;;;27.75;36.59
32642;BME280;19323;56.072;9.698;2022-09-27T03:09:29;98333.56;;;27.69;37.27
32642;BME280;19323;56.072;9.698;2022-09-27T03:11:55;98344.44;;;27.74;36.81
32642;BME280;19323;56.072;9.698;2022-09-27T03:14:22;98353.09;;;27.77;36.95
32642;BME280;19323;56.072;9.698;2022-09-27T03:16:48;98352.88;;;27.78;36.77
32642;BME280;19323;56.072;9.698;2022-09-27T03:19:15;98346.09;;;27.76;37.07
32642;BME280;19323;56.072;9.698;2022-09-27T03:21:41;98350.41;;;27.77;36.99
32642;BME280;19323;56.072;9.698;2022-09-27T03:24:08;98357.66;;;27.76;36.96
32642;BME280;19323;56.072;9.698;2022-09-27T03:26:34;98352.28;;;27.76;37.11
32642;BME280;19323;56.072;9.698;2022-09-27T03:29:01;98353.09;;;27.77;37.06
32642;BME280;19323;56.072;9.698;2022-09-27T03:31:27;98350.41;;;27.77;37.08
32642;BME280;19323;56.072;9.698;2022-09-27T03:33:54;98349.59;;;27.76;36.86
32642;BME280;19323;56.072;9.698;2022-09-27T03:36:20;98359.31;;;27.77;36.76
32642;BME280;19323;56.072;9.698;2022-09-27T03:38:47;98345.50;;;27.73;36.44
32642;BME280;19323;56.072;9.698;2022-09-27T03:41:13;98353.09;;;27.77;36.76
32642;BME280;19323;56.072;9.698;2022-09-27T03:43:40;98350.66;;;27.75;37.05
32642;BME280;19323;56.072;9.698;2022-09-27T03:46:06;98342.00;;;27.73;36.73
32642;BME280;19323;56.072;9.698;2022-09-27T03:48:33;98345.88;;;27.77;36.72
32642;BME280;19323;56.072;9.698;2022-09-27T03:50:59;98343.41;;;27.76;36.89
32642;BME280;19323;56.072;9.698;2022-09-27T03:53:26;98346.91;;;27.76;36.44
32642;BME280;19323;56.072;9.698;2022-09-27T03:55:52;98350.41;;;27.77;36.79
32642;BME280;19323;56.072;9.698;2022-09-27T03:58:19;98346.91;;;27.76;36.48
32642;BME280;19323;56.072;9.698;2022-09-27T04:00:45;98346.31;;;27.74;36.83
32642;BME280;19323;56.072;9.698;2022-09-27T04:03:12;98351.47;;;27.76;36.68
32642;BME280;19323;56.072;9.698;2022-09-27T04:05:39;98354.16;;;27.76;36.40
32642;BME280;19323;56.072;9.698;2022-09-27T04:08:05;98348.78;;;27.76;36.84
32642;BME280;19323;56.072;9.698;2022-09-27T04:10:33;98351.47;;;27.76;37.06
32642;BME280;19323;56.072;9.698;2022-09-27T04:12:59;98348.19;;;27.73;36.77
32642;BME280;19323;56.072;9.698;2022-09-27T04:15:26;98338.03;;;27.76;37.12
32642;BME280;19323;56.072;9.698;2022-09-27T04:17:52;98344.44;;;27.74;36.57
32642;BME280;19323;56.072;9.698;2022-09-27T04:20:19;98342.00;;;27.73;36.92
32642;BME280;19323;56.072;9.698;2022-09-27T04:22:45;98344.44;;;27.74;37.03
32642;BME280;19323;56.072;9.698;2022-09-27T04:25:12;98343.41;;;27.76;37.14
32642;BME280;19323;56.072;9.698;2022-09-27T04:27:43;98343.28;;;27.82;36.86
32642;BME280;19323;56.072;9.698;2022-09-27T04:30:11;98354.16;;;27.76;37.39
32642;BME280;19323;56.072;9.698;2022-09-27T04:32:41;98347.28;;;27.80;37.25
32642;BME280;19323;56.072;9.698;2022-09-27T04:35:09;98343.84;;;27.72;37.60
32642;BME280;19323;56.072;9.698;2022-09-27T04:37:54;98335.88;;;27.66;37.83
32642;BME280;19323;56.072;9.698;2022-09-27T04:40:21;98340.94;;;27.74;37.27
32642;BME280;19323;56.072;9.698;2022-09-27T04:42:48;98341.16;;;27.72;37.36
32642;BME280;19323;56.072;9.698;2022-09-27T04:45:16;98341.16;;;27.72;37.25
32642;BME280;19323;56.072;9.698;2022-09-27T04:47:48;98338.13;;;27.81;37.42
32642;BME280;19323;56.072;9.698;2022-09-27T04:50:16;98338.13;;;27.69;37.86
32642;BME280;19323;56.072;9.698;2022-09-27T04:52:50;98341.09;;;27.79;37.96
32642;BME280;19323;56.072;9.698;2022-09-27T04:55:18;98336.25;;;27.69;37.53
32642;BME280;19323;56.072;9.698;2022-09-27T04:57:46;98335.44;;;27.69;37.93
32642;BME280;19323;56.072;9.698;2022-09-27T05:00:13;98339.75;;;27.70;37.78
32642;BME280;19323;56.072;9.698;2022-09-27T05:02:44;98339.06;;;27.74;37.91
32642;BME280;19323;56.072;9.698;2022-09-27T05:05:11;98339.41;;;27.66;37.94
32642;BME280;19323;56.072;9.698;2022-09-27T05:07:37;98351.22;;;27.65;37.95
32642;BME280;19323;56.072;9.698;2022-09-27T05:10:06;98354.03;;;27.70;38.31
32642;BME280;19323;56.072;9.698;2022-09-27T05:12:33;98349.91;;;27.68;38.04
32642;BME280;19323;56.072;9.698;2022-09-27T05:15:01;98357.19;;;27.67;38.14
32642;BME280;19323;56.072;9.698;2022-09-27T05:17:27;98359.66;;;27.69;37.93
32642;BME280;19323;56.072;9.698;2022-09-27T05:19:53;98357.41;;;27.66;37.88
32642;BME280;19323;56.072;9.698;2022-09-27T05:22:20;98355.56;;;27.66;38.37
32642;BME280;19323;56.072;9.698;2022-09-27T05:24:46;98361.75;;;27.67;38.17
32642;BME280;19323;56.072;9.698;2022-09-27T05:27:14;98358.25;;;27.66;38.56
32642;BME280;19323;56.072;9.698;2022-09-27T05:29:44;98351.22;;;27.65;38.50
32642;BME280;19323;56.072;9.698;2022-09-27T05:32:11;98359.28;;;27.65;38.26
32642;BME280;19323;56.072;9.698;2022-09-27T05:34:37;98357.41;;;27.66;38.53
32642;BME280;19323;56.072;9.698;2022-09-27T05:37:04;98357.41;;;27.66;38.46
32642;BME280;19323;56.072;9.698;2022-09-27T05:39:31;98364.66;;;27.65;38.88
32642;BME280;19323;56.072;9.698;2022-09-27T05:41:57;98359.50;;;27.64;38.38
32642;BME280;19323;56.072;9.698;2022-09-27T05:44:24;98362.78;;;27.66;38.60
32642;BME280;19323;56.072;9.698;2022-09-27T05:46:51;98361.97;;;27.65;38.65
32642;BME280;19323;56.072;9.698;2022-09-27T05:49:17;98355.19;;;27.63;38.50
32642;BME280;19323;56.072;9.698;2022-09-27T05:51:45;98362.78;;;27.66;38.53
32642;BME280;19323;56.072;9.698;2022-09-27T05:54:12;98361.97;;;27.65;38.50
32642;BME280;19323;56.072;9.698;2022-09-27T05:56:39;98367.34;;;27.65;38.53
32642;BME280;19323;56.072;9.698;2022-09-27T05:59:05;98362.78;;;27.66;38.43
32642;BME280;19323;56.072;9.698;2022-09-27T06:01:32;98363.84;;;27.65;38.86
32642;BME280;19323;56.072;9.698;2022-09-27T06:03:59;98366.53;;;27.65;38.85
32642;BME280;19323;56.072;9.698;2022-09-27T06:06:25;98359.59;;;27.57;38.65
32642;BME280;19323;56.072;9.698;2022-09-27T06:08:51;98361.38;;;27.63;38.32
32642;BME280;19323;56.072;9.698;2022-09-27T06:11:18;98358.94;;;27.62;38.74
32642;BME280;19323;56.072;9.698;2022-09-27T06:13:45;98379.97;;;27.65;38.34
32642;BME280;19323;56.072;9.698;2022-09-27T06:16:11;98367.81;;;27.62;38.37
32642;BME280;19323;56.072;9.698;2022-09-27T06:18:38;98363.25;;;27.63;38.47
32642;BME280;19323;56.072;9.698;2022-09-27T06:21:05;98373.78;;;27.64;38.42
32642;BME280;19323;56.072;9.698;2022-09-27T06:23:31;98378.31;;;27.64;38.57
32642;BME280;19323;56.072;9.698;2022-09-27T06:26:03;98383.03;;;27.68;38.60
32642;BME280;19323;56.072;9.698;2022-09-27T06:28:31;98385.56;;;27.63;38.62
32642;BME280;19323;56.072;9.698;2022-09-27T06:30:58;98385.81;;;27.62;38.28
32642;BME280;19323;56.072;9.698;2022-09-27T06:33:27;98390.13;;;27.63;38.64
32642;BME280;19323;56.072;9.698;2022-09-27T06:35:54;98387.66;;;27.61;38.41
32642;BME280;19323;56.072;9.698;2022-09-27T06:38:20;98389.31;;;27.62;38.43
32642;BME280;19323;56.072;9.698;2022-09-27T06:40:47;98393.03;;;27.61;38.50
32642;BME280;19323;56.072;9.698;2022-09-27T06:43:16;98390.94;;;27.63;38.56
32642;BME280;19323;56.072;9.698;2022-09-27T06:45:43;98396.81;;;27.60;38.45
32642;BME280;19323;56.072;9.698;2022-09-27T06:48:11;98393.28;;;27.60;38.54
32642;BME280;19323;56.072;9.698;2022-09-27T06:50:40;98394.72;;;27.62;38.30
32642;BME280;19323;56.072;9.698;2022-09-27T06:53:08;98400.91;;;27.63;38.31
32642;BME280;19323;56.072;9.698;2022-09-27T06:55:36;98399.50;;;27.60;38.46
32642;BME280;19323;56.072;9.698;2022-09-27T06:58:03;98406.50;;;27.61;38.00
32642;BME280;19323;56.072;9.698;2022-09-27T07:00:52;98405.81;;;27.66;37.90
32642;BME280;19323;56.072;9.698;2022-09-27T07:03:20;98409.19;;;27.61;38.09
32642;BME280;19323;56.072;9.698;2022-09-27T07:05:55;98411.56;;;27.69;37.99
32642;BME280;19323;56.072;9.698;2022-09-27T07:08:23;98420.19;;;27.60;38.10
32642;BME280;19323;56.072;9.698;2022-09-27T07:10:51;98413.16;;;27.59;37.96
32642;BME280;19323;56.072;9.698;2022-09-27T07:13:20;98413.38;;;27.57;38.51
32642;BME280;19323;56.072;9.698;2022-09-27T07:15:47;98415.63;;;27.60;38.16
32642;BME280;19323;56.072;9.698;2022-09-27T07:18:14;98415.03;;;27.58;37.88
32642;BME280;19323;56.072;9.698;2022-09-27T07:20:40;98414.81;;;27.60;37.86
32642;BME280;19323;56.072;9.698;2022-09-27T07:23:08;98416.66;;;27.59;38.08
32642;BME280;19323;56.072;9.698;2022-09-27T07:25:35;98408.47;;;27.54;38.29
32642;BME280;19323;56.072;9.698;2022-09-27T07:28:04;98415.63;;;27.60;37.91
32642;BME280;19323;56.072;9.698;2022-09-27T07:30:31;98421.22;;;27.59;37.93
32642;BME280;19323;56.072;9.698;2022-09-27T07:33:04;98421.94;;;27.66;38.03
32642;BME280;19323;56.072;9.698;2022-09-27T07:35:31;98429.50;;;27.57;38.15
32642;BME280;19323;56.072;9.698;2022-09-27T07:37:58;98418.41;;;27.53;38.12
32642;BME280;19323;56.072;9.698;2022-09-27T07:40:25;98431.16;;;27.58;38.07
32642;BME280;19323;56.072;9.698;2022-09-27T07:42:56;98441.00;;;27.64;38.09
32642;BME280;19323;56.072;9.698;2022-09-27T07:45:24;98439.44;;;27.57;38.28
32642;BME280;19323;56.072;9.698;2022-09-27T07:47:51;98431.63;;;27.55;38.03
32642;BME280;19323;56.072;9.698;2022-09-27T07:50:18;98429.97;;;27.54;38.00
32642;BME280;19323;56.072;9.698;2022-09-27T07:52:46;98427.66;;;27.58;38.09
32642;BME280;19323;56.072;9.698;2022-09-27T07:55:17;98427.41;;;27.59;37.78
32642;BME280;19323;56.072;9.698;2022-09-27T07:57:44;98420.03;;;27.54;37.64
32642;BME280;19323;56.072;9.698;2022-09-27T08:00:13;98430.09;;;27.59;37.74
32642;BME280;19323;56.072;9.698;2022-09-27T08:02:41;98431.16;;;27.58;37.51
32642;BME280;19323;56.072;9.698;2022-09-27T08:05:09;98426.81;;;27.57;37.96
32642;BME280;19323;56.072;9.698;2022-09-27T08:07:36;98429.50;;;27.57;37.63
32642;BME280;19323;56.072;9.698;2022-09-27T08:10:06;98429.50;;;27.57;37.60
32642;BME280;19323;56.072;9.698;2022-09-27T08:12:32;98423.31;;;27.57;37.42
32642;BME280;19323;56.072;9.698;2022-09-27T08:14:59;98409.03;;;27.44;37.63
32642;BME280;19323;56.072;9.698;2022-09-27T08:17:27;98434.06;;;27.57;37.81
32642;BME280;19323;56.072;9.698;2022-09-27T08:19:54;98427.28;;;27.54;37.83
32642;BME280;19323;56.072;9.698;2022-09-27T08:22:21;98436.75;;;27.57;37.85
32642;BME280;19323;56.072;9.698;2022-09-27T08:24:48;98438.63;;;27.56;37.57
32642;BME280;19323;56.072;9.698;2022-09-27T08:27:15;98440.25;;;27.57;37.91
32642;BME280;19323;56.072;9.698;2022-09-27T08:29:42;98436.75;;;27.57;37.83
32642;BME280;19323;56.072;9.698;2022-09-27T08:32:09;98433.03;;;27.58;37.44
32642;BME280;19323;56.072;9.698;2022-09-27T08:34:37;98439.44;;;27.57;37.38
32642;BME280;19323;56.072;9.698;2022-09-27T08:37:04;98445.88;;;27.56;37.79
32642;BME280;19323;56.072;9.698;2022-09-27T08:39:31;98444.00;;;27.56;37.64
32642;BME280;19323;56.072;9.698;2022-09-27T08:45:10;98443.69;;;27.64;37.24
32642;BME280;19323;56.072;9.698;2022-09-27T08:47:46;98443.31;;;27.61;37.68
32642;BME280;19323;56.072;9.698;2022-09-27T08:55:42;98445.63;;;27.57;37.37
32642;BME280;19323;56.072;9.698;2022-09-27T08:58:32;98442.63;;;27.65;37.05
32642;BME280;19323;56.072;9.698;2022-09-27T09:01:03;98440.50;;;27.56;37.21
32642;BME280;19323;56.072;9.698;2022-09-27T09:03:40;98441.69;;;27.60;37.31
32642;BME280;19323;56.072;9.698;2022-09-27T09:06:24;98428.09;;;27.54;37.00
32642;BME280;19323;56.072;9.698;2022-09-27T09:09:10;98443.91;;;27.63;37.13
32642;BME280;19323;56.072;9.698;2022-09-27T09:12:00;98444.13;;;27.61;37.30
32642;BME280;19323;56.072;9.698;2022-09-27T09:18:10;98446.38;;;27.64;37.20
32642;BME280;19323;56.072;9.698;2022-09-27T09:26:58;98449.75;;;27.60;36.96
32642;BME280;19323;56.072;9.698;2022-09-27T09:35:12;98458.66;;;27.60;37.29
32642;BME280;19323;56.072;9.698;2022-09-27T09:37:54;98454.91;;;27.61;37.13
32642;BME280;19323;56.072;9.698;2022-09-27T09:40:55;98451.41;;;27.61;36.72
32642;BME280;19323;56.072;9.698;2022-09-27T09:43:25;98449.38;;;27.56;37.29
32642;BME280;19323;56.072;9.698;2022-09-27T09:45:58;98452.69;;;27.58;37.31
32642;BME280;19323;56.072;9.698;2022-09-27T09:48:41;98451.88;;;27.58;36.86
32642;BME280;19323;56.072;9.698;2022-09-27T09:51:14;98457.25;;;27.58;37.13
32642;BME280;19323;56.072;9.698;2022-09-27T09:53:56;98450.56;;;27.60;36.69
32642;BME280;19323;56.072;9.698;2022-09-27T09:56:29;98456.19;;;27.59;36.92
32642;BME280;19323;56.072;9.698;2022-09-27T09:59:01;98463.91;;;27.55;37.24
32642;BME280;19323;56.072;9.698;2022-09-27T10:01:38;98449.75;;;27.60;37.09
32642;BME280;19323;56.072;9.698;2022-09-27T10:04:05;98448.19;;;27.52;37.04
32642;BME280;19323;56.072;9.698;2022-09-27T10:06:32;98453.34;;;27.53;37.16
32642;BME280;19323;56.072;9.698;2022-09-27T10:08:59;98450.88;;;27.52;37.05
32642;BME280;19323;56.072;9.698;2022-09-27T10:11:36;98453.28;;;27.60;36.90
32642;BME280;19323;56.072;9.698;2022-09-27T10:14:09;98448.09;;;27.59;37.04
32642;BME280;19323;56.072;9.698;2022-09-27T10:16:38;98454.16;;;27.54;37.12
32642;BME280;19323;56.072;9.698;2022-09-27T10:19:08;98450.28;;;27.50;36.87
32642;BME280;19323;56.072;9.698;2022-09-27T10:21:39;98457.25;;;27.58;37.04
32642;BME280;19323;56.072;9.698;2022-09-27T10:26:43;98454.78;;;27.56;36.95
32642;BME280;19323;56.072;9.698;2022-09-27T10:29:22;98459.25;;;27.62;36.44
32642;BME280;19323;56.072;9.698;2022-09-27T10:31:50;98437.16;;;27.42;36.83
32642;BME280;19323;56.072;9.698;2022-09-27T10:34:37;98459.00;;;27.64;36.87
32642;BME280;19323;56.072;9.698;2022-09-27T10:39:33;98444.91;;;27.50;37.06
32642;BME280;19323;56.072;9.698;2022-09-27T10:42:00;98447.38;;;27.51;36.58
32642;BME280;19323;56.072;9.698;2022-09-27T10:44:28;98438.25;;;27.52;37.27
32642;BME280;19323;56.072;9.698;2022-09-27T10:46:58;98443.19;;;27.56;36.59
32642;BME280;19323;56.072;9.698;2022-09-27T10:49:41;98450.13;;;27.63;36.48
32642;BME280;19323;56.072;9.698;2022-09-27T10:52:21;98447.66;;;27.62;36.47
32642;BME280;19323;56.072;9.698;2022-09-27T10:54:56;98454.56;;;27.58;36.52
32642;BME280;19323;56.072;9.698;2022-09-27T10:57:27;98445.63;;;27.57;36.53
32642;BME280;19323;56.072;9.698;2022-09-27T10:59:57;98446.09;;;27.54;36.55
32642;BME280;19323;56.072;9.698;2022-09-27T11:02:36;98448.50;;;27.62;36.90
32642;BME280;19323;56.072;9.698;2022-09-27T11:05:11;98451.41;;;27.61;36.74
32642;BME280;19323;56.072;9.698;2022-09-27T11:07:52;98453.06;;;27.62;36.64
32642;BME280;19323;56.072;9.698;2022-09-27T11:10:28;98448.09;;;27.59;36.60
32642;BME280;19323;56.072;9.698;2022-09-27T11:13:15;98446.81;;;27.61;36.83
32642;BME280;19323;56.072;9.698;2022-09-27T11:21:58;98441.69;;;27.60;36.66
32642;BME280;19323;56.072;9.698;2022-09-27T11:29:51;98453.94;;;27.56;36.71
32642;BME280;19323;56.072;9.698;2022-09-27T11:32:43;98446.91;;;27.54;36.79
32642;BME280;19323;56.072;9.698;2022-09-27T11:47:50;98451.63;;;27.59;36.60
32642;BME280;19323;56.072;9.698;2022-09-27T11:58:53;98446.19;;;27.47;36.57
32642;BME280;19323;56.072;9.698;2022-09-27T12:01:32;98452.28;;;27.54;36.38
32642;BME280;19323;56.072;9.698;2022-09-27T12:09:08;98447.16;;;27.53;36.33
32642;BME280;19323;56.072;9.698;2022-09-27T12:11:44;98449.38;;;27.56;36.71
32642;BME280;19323;56.072;9.698;2022-09-27T12:14:26;98445.63;;;27.57;36.36
32642;BME280;19323;56.072;9.698;2022-09-27T12:16:56;98441.63;;;27.48;36.68
32642;BME280;19323;56.072;9.698;2022-09-27T12:19:31;98450.44;;;27.55;36.84
32642;BME280;19323;56.072;9.698;2022-09-27T12:22:06;98444.47;;;27.53;36.70
32642;BME280;19323;56.072;9.698;2022-09-27T12:24:36;98448.28;;;27.45;36.75
32642;BME280;19323;56.072;9.698;2022-09-27T12:27:14;98450.19;;;27.57;37.00
32642;BME280;19323;56.072;9.698;2022-09-27T12:29:43;98452.75;;;27.51;36.82
32642;BME280;19323;56.072;9.698;2022-09-27T12:32:26;98459.69;;;27.59;36.53
32642;BME280;19323;56.072;9.698;2022-09-27T12:37:34;98453.13;;;27.55;36.60
32642;BME280;19323;56.072;9.698;2022-09-27T12:40:21;98457.00;;;27.59;36.60
32642;BME280;19323;56.072;9.698;2022-09-27T12:42:59;98466.00;;;27.53;36.96
32642;BME280;19323;56.072;9.698;2022-09-27T12:48:25;98465.31;;;27.58;36.99
32642;BME280;19323;56.072;9.698;2022-09-27T12:51:04;98456.25;;;27.52;36.89
32642;BME280;19323;56.072;9.698;2022-09-27T12:53:58;98454.78;;;27.56;37.09
32642;BME280;19323;56.072;9.698;2022-09-27T12:57:12;98465.31;;;27.58;36.66
32642;BME280;19323;56.072;9.698;2022-09-27T13:06:04;98455.81;;;27.55;36.48
32642;BME280;19323;56.072;9.698;2022-09-27T13:14:23;98453.13;;;27.55;36.94
32642;BME280;19323;56.072;9.698;2022-09-27T13:16:50;98447.69;;;27.43;37.07
32642;BME280;19323;56.072;9.698;2022-09-27T13:19:42;98452.06;;;27.56;36.69
32642;BME280;19323;56.072;9.698;2022-09-27T13:22:36;98454.78;;;27.56;37.12
32642;BME280;19323;56.072;9.698;2022-09-27T13:30:54;98456.56;;;27.44;36.74
32642;BME280;19323;56.072;9.698;2022-09-27T13:44:49;98474.66;;;27.55;37.00
32642;BME280;19323;56.072;9.698;2022-09-27T13:49:59;98474.28;;;27.51;37.33
32642;BME280;19323;56.072;9.698;2022-09-27T13:52:34;98476.97;;;27.51;37.59
32642;BME280;19323;56.072;9.698;2022-09-27T13:55:06;98477.66;;;27.47;37.22
32642;BME280;19323;56.072;9.698;2022-09-27T13:57:59;98479.44;;;27.53;37.38
32642;BME280;19323;56.072;9.698;2022-09-27T14:00:31;98479.88;;;27.50;37.50
32642;BME280;19323;56.072;9.698;2022-09-27T14:03:27;98480.03;;;27.55;37.37
32642;BME280;19323;56.072;9.698;2022-09-27T14:06:21;98485.47;;;27.48;37.61
32642;BME280;19323;56.072;9.698;2022-09-27T14:11:42;98481.88;;;27.54;37.06
32642;BME280;19323;56.072;9.698;2022-09-27T14:14:16;98484.44;;;27.49;37.56
32642;BME280;19323;56.072;9.698;2022-09-27T14:16:44;98480.16;;;27.42;37.65
32642;BME280;19323;56.072;9.698;2022-09-27T14:19:18;98487.94;;;27.50;37.12
32642;BME280;19323;56.072;9.698;2022-09-27T14:22:13;98489.94;;;27.54;37.37
32642;BME280;19323;56.072;9.698;2022-09-27T14:29:53;98491.91;;;27.47;37.20
32642;BME280;19323;56.072;9.698;2022-09-27T14:32:30;98491.75;;;27.42;37.29
32642;BME280;19323;56.072;9.698;2022-09-27T14:35:06;98494.22;;;27.44;37.48
32642;BME280;19323;56.072;9.698;2022-09-27T14:37:57;98487.06;;;27.38;37.47
32642;BME280;19323;56.072;9.698;2022-09-27T14:41:00;98498.69;;;27.50;36.80
32642;BME280;19323;56.072;9.698;2022-09-27T14:43:28;98493.47;;;27.37;37.41
32642;BME280;19323;56.072;9.698;2022-09-27T14:46:03;98495.88;;;27.45;37.36
32642;BME280;19323;56.072;9.698;2022-09-27T14:48:38;98495.06;;;27.44;36.84
32642;BME280;19323;56.072;9.698;2022-09-27T14:53:43;98500.50;;;27.38;37.35
32642;BME280;19323;56.072;9.698;2022-09-27T14:56:14;98501.66;;;27.42;36.88
32642;BME280;19323;56.072;9.698;2022-09-27T14:58:44;98494.75;;;27.34;37.05
32642;BME280;19323;56.072;9.698;2022-09-27T15:01:15;98497.81;;;27.38;37.23
32642;BME280;19323;56.072;9.698;2022-09-27T15:03:43;98502.59;;;27.36;37.09
32642;BME280;19323;56.072;9.698;2022-09-27T15:06:10;98504.44;;;27.35;36.95
32642;BME280;19323;56.072;9.698;2022-09-27T15:08:37;98487.19;;;27.24;37.17
32642;BME280;19323;56.072;9.698;2022-09-27T15:11:05;98505.28;;;27.36;37.13
32642;BME280;19323;56.072;9.698;2022-09-27T15:13:33;98502.81;;;27.34;37.31
32642;BME280;19323;56.072;9.698;2022-09-27T15:16:09;98498.38;;;27.40;37.02
32642;BME280;19323;56.072;9.698;2022-09-27T15:18:43;98507.97;;;27.36;37.50
32642;BME280;19323;56.072;9.698;2022-09-27T15:21:29;98521.09;;;27.44;36.85
32642;BME280;19323;56.072;9.698;2022-09-27T15:23:56;98509.22;;;27.33;37.29
32642;BME280;19323;56.072;9.698;2022-09-27T15:26:40;98521.94;;;27.44;36.67
32642;BME280;19323;56.072;9.698;2022-09-27T15:29:24;98531.84;;;27.44;37.09
32642;BME280;19323;56.072;9.698;2022-09-27T15:32:01;98523.63;;;27.39;36.91
32642;BME280;19323;56.072;9.698;2022-09-27T15:34:29;98527.44;;;27.31;37.45
32642;BME280;19323;56.072;9.698;2022-09-27T15:36:59;98530.13;;;27.31;37.14
32642;BME280;19323;56.072;9.698;2022-09-27T15:39:32;98544.53;;;27.37;37.50
32642;BME280;19323;56.072;9.698;2022-09-27T15:44:36;98545.97;;;27.39;37.19
32642;BME280;19323;56.072;9.698;2022-09-27T15:47:03;98546.50;;;27.29;37.72
32642;BME280;19323;56.072;9.698;2022-09-27T15:49:30;98551.88;;;27.29;37.79
32642;BME280;19323;56.072;9.698;2022-09-27T15:52:02;98542.00;;;27.23;37.82
32642;BME280;19323;56.072;9.698;2022-09-27T15:54:30;98557.25;;;27.29;37.86
32642;BME280;19323;56.072;9.698;2022-09-27T15:57:03;98551.41;;;27.32;37.85
32642;BME280;19323;56.072;9.698;2022-09-27T15:59:33;98548.38;;;27.29;37.34
32642;BME280;19323;56.072;9.698;2022-09-27T16:02:05;98555.16;;;27.31;37.52
32642;BME280;19323;56.072;9.698;2022-09-27T16:04:35;98559.13;;;27.29;37.73